createdAt,value
2022-12-25T00:01:49.303Z,7.50
2022-12-25T00:04:17.449Z,7.85
2022-12-25T00:06:44.199Z,7.40
2022-12-25T00:09:10.848Z,7.28
2022-12-25T00:11:38.157Z,7.03
2022-12-25T00:14:04.858Z,7.10
2022-12-25T00:16:31.532Z,7.13
2022-12-25T00:18:58.166Z,6.07
2022-12-25T00:21:26.975Z,6.72
2022-12-25T00:23:54.299Z,6.85
2022-12-25T00:26:21.552Z,8.05
2022-12-25T00:28:48.322Z,7.05
2022-12-25T00:31:17.540Z,7.68
2022-12-25T00:33:46.166Z,7.10
2022-12-25T00:36:15.049Z,6.80
2022-12-25T00:38:43.538Z,6.25
2022-12-25T00:41:12.166Z,7.22
2022-12-25T00:43:39.179Z,6.38
2022-12-25T00:46:06.875Z,6.32
2022-12-25T00:48:34.779Z,6.50
2022-12-25T00:51:03.276Z,6.20
2022-12-25T00:53:30.444Z,6.53
2022-12-25T00:56:00.055Z,7.45
2022-12-25T00:58:28.950Z,6.63
2022-12-25T01:00:55.806Z,6.80
2022-12-25T01:03:23.499Z,6.20
2022-12-25T01:05:56.140Z,6.88
2022-12-25T01:08:22.846Z,6.97
2022-12-25T01:10:54.770Z,7.55
2022-12-25T01:13:22.869Z,7.13
2022-12-25T01:15:49.960Z,7.05
2022-12-25T01:18:16.605Z,7.28
2022-12-25T01:20:43.309Z,7.53
2022-12-25T01:23:10.026Z,8.43
2022-12-25T01:25:36.610Z,7.32
2022-12-25T01:28:03.428Z,7.93
2022-12-25T01:30:31.463Z,8.15
2022-12-25T01:32:58.381Z,7.95
2022-12-25T01:35:25.378Z,7.07
2022-12-25T01:37:52.246Z,6.47
2022-12-25T01:40:19.148Z,6.18
2022-12-25T01:42:46.140Z,7.95
2022-12-25T01:45:35.595Z,7.45
2022-12-25T01:48:05.806Z,8.55
2022-12-25T01:50:34.099Z,7.25
2022-12-25T01:53:00.822Z,6.78
2022-12-25T01:55:27.803Z,6.40
2022-12-25T01:57:54.751Z,7.47
2022-12-25T02:00:21.468Z,6.05
2022-12-25T02:02:49.711Z,5.90
2022-12-25T02:05:22.864Z,5.45
2022-12-25T02:07:50.227Z,5.65
2022-12-25T02:10:17.805Z,5.85
2022-12-25T02:12:45.382Z,5.50
2022-12-25T02:15:15.375Z,5.25
2022-12-25T02:17:49.677Z,5.40
2022-12-25T02:20:45.552Z,5.90
2022-12-25T02:23:57.784Z,5.30
2022-12-25T02:26:59.567Z,4.40
2022-12-25T02:29:33.387Z,4.50
2022-12-25T02:32:05.670Z,4.65
2022-12-25T02:34:35.497Z,4.40
2022-12-25T02:37:06.581Z,4.40
2022-12-25T02:39:48.906Z,4.65
2022-12-25T02:42:22.385Z,4.00
2022-12-25T02:44:51.860Z,4.22
2022-12-25T02:47:19.836Z,4.28
2022-12-25T02:49:47.602Z,3.40
2022-12-25T02:52:19.769Z,3.50
2022-12-25T02:54:51.188Z,3.67
2022-12-25T02:57:21.546Z,3.60
2022-12-25T02:59:54.073Z,3.50
2022-12-25T03:02:23.460Z,4.28
2022-12-25T03:04:52.980Z,4.15
2022-12-25T03:07:22.391Z,3.67
2022-12-25T03:09:54.967Z,5.13
2022-12-25T03:12:31.126Z,4.68
2022-12-25T03:14:59.200Z,5.60
2022-12-25T03:17:26.328Z,4.63
2022-12-25T03:19:53.035Z,4.28
2022-12-25T03:22:24.424Z,4.18
2022-12-25T03:24:51.429Z,4.07
2022-12-25T03:27:18.062Z,5.10
2022-12-25T03:29:44.767Z,5.50
2022-12-25T03:32:23.246Z,4.35
2022-12-25T03:34:57.083Z,5.00
2022-12-25T03:37:31.808Z,5.18
2022-12-25T03:40:07.480Z,4.88
2022-12-25T03:42:42.695Z,4.13
2022-12-25T03:45:16.341Z,4.15
2022-12-25T03:47:47.421Z,4.80
2022-12-25T03:50:19.744Z,4.15
2022-12-25T03:52:48.231Z,3.95
2022-12-25T03:55:17.110Z,4.57
2022-12-25T03:57:43.811Z,4.07
2022-12-25T04:00:11.344Z,4.38
2022-12-25T04:02:38.515Z,4.53
2022-12-25T04:05:07.614Z,4.30
2022-12-25T04:07:34.368Z,4.20
2022-12-25T04:10:01.067Z,4.55
2022-12-25T04:12:27.670Z,5.35
2022-12-25T04:14:54.352Z,4.65
2022-12-25T04:17:21.039Z,4.45
2022-12-25T04:19:47.649Z,3.80
2022-12-25T04:22:15.747Z,3.58
2022-12-25T04:24:42.420Z,2.90
2022-12-25T04:27:09.115Z,3.15
2022-12-25T04:29:35.687Z,3.95
2022-12-25T04:32:02.404Z,3.30
2022-12-25T04:34:29.082Z,3.25
2022-12-25T04:36:55.719Z,3.45
2022-12-25T04:39:23.757Z,3.30
2022-12-25T04:41:50.408Z,2.75
2022-12-25T04:44:17.105Z,2.40
2022-12-25T04:46:43.837Z,2.63
2022-12-25T04:49:10.635Z,2.10
2022-12-25T04:51:37.331Z,2.78
2022-12-25T04:54:04.192Z,1.85
2022-12-25T04:56:33.228Z,2.50
2022-12-25T04:58:59.967Z,2.38
2022-12-25T05:01:27.229Z,2.30
2022-12-25T05:03:54.052Z,2.45
2022-12-25T05:06:21.015Z,1.95
2022-12-25T05:08:47.634Z,2.00
2022-12-25T05:11:15.734Z,2.50
2022-12-25T05:13:44.252Z,2.47
2022-12-25T05:16:14.020Z,2.65
2022-12-25T05:18:40.918Z,2.90
2022-12-25T05:21:08.074Z,2.50
2022-12-25T05:23:34.987Z,2.92
2022-12-25T05:26:04.860Z,2.67
2022-12-25T05:28:31.529Z,2.90
2022-12-25T05:30:59.678Z,3.55
2022-12-25T05:33:26.471Z,3.17
2022-12-25T05:35:53.175Z,2.70
2022-12-25T05:38:19.782Z,3.10
2022-12-25T05:40:46.445Z,3.90
2022-12-25T05:43:13.076Z,3.55
2022-12-25T05:45:39.704Z,3.78
2022-12-25T05:48:09.637Z,5.78
2022-12-25T05:50:36.935Z,4.68
2022-12-25T05:53:08.084Z,4.63
2022-12-25T05:55:35.688Z,4.75
2022-12-25T05:58:02.538Z,6.00
2022-12-25T06:00:29.175Z,4.82
2022-12-25T06:02:56.020Z,5.40
2022-12-25T06:05:24.627Z,6.10
2022-12-25T06:07:51.309Z,4.60
2022-12-25T06:10:18.276Z,4.78
2022-12-25T06:12:44.928Z,4.95
2022-12-25T06:15:11.784Z,4.88
2022-12-25T06:17:38.623Z,5.70
2022-12-25T06:20:06.844Z,4.78
2022-12-25T06:22:35.576Z,6.43
2022-12-25T06:25:02.338Z,6.00
2022-12-25T06:27:29.072Z,5.22
2022-12-25T06:29:55.803Z,6.38
2022-12-25T06:32:22.603Z,6.07
2022-12-25T06:34:49.251Z,5.90
2022-12-25T06:37:15.921Z,4.50
2022-12-25T06:39:43.890Z,5.22
2022-12-25T06:42:10.539Z,6.03
2022-12-25T06:44:38.334Z,5.38
2022-12-25T06:47:05.241Z,5.15
2022-12-25T06:49:31.936Z,4.97
2022-12-25T06:51:58.623Z,4.45
2022-12-25T06:54:25.290Z,3.92
2022-12-25T06:56:53.291Z,4.47
2022-12-25T06:59:20.104Z,4.47
2022-12-25T07:01:49.230Z,4.85
2022-12-25T07:04:20.890Z,4.82
2022-12-25T07:06:47.494Z,4.22
2022-12-25T07:09:14.198Z,4.70
2022-12-25T07:11:40.799Z,4.20
2022-12-25T07:14:23.225Z,4.25
2022-12-25T07:16:50.723Z,4.82
2022-12-25T07:19:17.566Z,5.50
2022-12-25T07:21:44.228Z,4.80
2022-12-25T07:24:10.832Z,4.65
2022-12-25T07:26:37.443Z,5.00
2022-12-25T07:29:04.195Z,5.40
2022-12-25T07:31:32.323Z,4.40
2022-12-25T07:33:58.966Z,5.00
2022-12-25T07:36:25.644Z,5.32
2022-12-25T07:38:52.325Z,5.63
2022-12-25T07:41:19.160Z,6.25
2022-12-25T07:43:49.689Z,5.55
2022-12-25T07:46:16.433Z,5.97
2022-12-25T07:48:44.637Z,5.80
2022-12-25T07:51:13.907Z,5.60
2022-12-25T07:53:41.044Z,6.18
2022-12-25T07:56:11.477Z,6.75
2022-12-25T07:58:38.450Z,5.22
2022-12-25T08:01:07.042Z,5.50
2022-12-25T08:03:35.065Z,5.40
2022-12-25T08:06:05.674Z,5.47
2022-12-25T08:08:32.464Z,6.05
2022-12-25T08:10:59.182Z,5.60
2022-12-25T08:13:25.947Z,5.00
2022-12-25T08:15:57.011Z,5.03
2022-12-25T08:18:29.451Z,4.55
2022-12-25T08:20:56.684Z,4.70
2022-12-25T08:23:24.750Z,4.22
2022-12-25T08:25:51.406Z,5.10
2022-12-25T08:28:18.044Z,5.28
2022-12-25T08:30:44.681Z,4.70
2022-12-25T08:33:11.402Z,5.25
2022-12-25T08:35:38.028Z,4.47
2022-12-25T08:38:04.641Z,5.88
2022-12-25T08:40:32.671Z,5.10
2022-12-25T08:42:59.282Z,6.97
2022-12-25T08:45:31.185Z,6.90
2022-12-25T08:48:01.257Z,6.25
2022-12-25T08:50:27.909Z,6.35
2022-12-25T08:52:54.570Z,6.45
2022-12-25T08:55:21.280Z,5.97
2022-12-25T08:57:52.249Z,5.43
2022-12-25T09:00:19.626Z,5.57
2022-12-25T09:02:46.297Z,6.18
2022-12-25T09:05:13.206Z,6.20
2022-12-25T09:07:39.841Z,5.68
2022-12-25T09:10:07.959Z,5.90
2022-12-25T09:12:34.634Z,5.57
2022-12-25T09:15:02.791Z,5.72
2022-12-25T09:17:29.392Z,5.93
2022-12-25T09:19:56.081Z,5.28
2022-12-25T09:22:22.740Z,5.00
2022-12-25T09:24:49.392Z,4.85
2022-12-25T09:27:16.090Z,6.00
2022-12-25T09:29:42.872Z,4.85
2022-12-25T09:32:11.047Z,4.97
2022-12-25T09:34:37.702Z,6.47
2022-12-25T09:37:04.379Z,6.45
2022-12-25T09:39:31.024Z,5.95
2022-12-25T09:42:01.625Z,8.50
2022-12-25T09:44:32.126Z,5.30
2022-12-25T09:47:02.655Z,7.43
2022-12-25T09:49:37.100Z,5.97
2022-12-25T09:52:08.222Z,6.65
2022-12-25T09:54:41.818Z,6.90
2022-12-25T09:57:11.934Z,7.18
2022-12-25T09:59:38.943Z,7.22
2022-12-25T10:02:33.752Z,6.88
2022-12-25T10:05:24.012Z,6.50
2022-12-25T10:08:00.263Z,6.85
2022-12-25T10:10:43.375Z,7.00
2022-12-25T10:13:26.289Z,7.18
2022-12-25T10:16:04.078Z,7.47
2022-12-25T10:18:47.989Z,7.00
2022-12-25T10:21:18.777Z,6.85
2022-12-25T10:23:50.048Z,7.20
2022-12-25T10:26:18.202Z,6.97
2022-12-25T10:28:47.942Z,7.00
2022-12-25T10:31:19.533Z,6.65
2022-12-25T10:33:46.787Z,7.63
2022-12-25T10:36:14.774Z,7.85
2022-12-25T10:38:42.791Z,6.93
2022-12-25T10:41:21.942Z,6.40
2022-12-25T10:43:50.699Z,7.85
2022-12-25T10:46:19.211Z,7.97
2022-12-25T10:48:49.435Z,6.95
2022-12-25T10:51:28.162Z,6.85
2022-12-25T10:53:56.691Z,6.75
2022-12-25T10:56:23.697Z,6.45
2022-12-25T10:58:50.431Z,6.22
2022-12-25T11:01:17.346Z,7.72
2022-12-25T11:03:46.017Z,7.40
2022-12-25T11:06:22.827Z,6.82
2022-12-25T11:08:53.239Z,7.93
2022-12-25T11:11:21.851Z,7.22
2022-12-25T11:13:50.764Z,7.55
2022-12-25T11:16:27.984Z,7.40
2022-12-25T11:18:55.803Z,7.43
2022-12-25T11:21:24.701Z,7.82
2022-12-25T11:23:57.331Z,8.27
2022-12-25T11:26:26.514Z,7.65
2022-12-25T11:28:54.717Z,7.85
2022-12-25T11:31:29.480Z,8.15
2022-12-25T11:34:00.983Z,8.27
2022-12-25T11:36:32.602Z,8.43
2022-12-25T11:39:07.991Z,7.65
2022-12-25T11:41:38.016Z,7.85
2022-12-25T11:44:14.929Z,8.50
2022-12-25T11:46:45.810Z,8.68
2022-12-25T11:49:18.577Z,9.13
2022-12-25T11:51:49.035Z,7.93
2022-12-25T11:54:23.067Z,8.52
2022-12-25T11:56:51.032Z,8.07
2022-12-25T11:59:22.778Z,8.10
2022-12-25T12:01:54.793Z,9.15
2022-12-25T12:04:29.965Z,12.02
2022-12-25T12:07:04.870Z,9.50
2022-12-25T12:09:42.716Z,8.80
2022-12-25T12:12:18.708Z,10.18
2022-12-25T12:14:55.618Z,9.75
2022-12-25T12:17:22.340Z,10.30
2022-12-25T12:19:48.996Z,10.65
2022-12-25T12:22:20.175Z,11.45
2022-12-25T12:24:53.228Z,13.15
2022-12-25T12:27:25.158Z,11.55
2022-12-25T12:29:55.778Z,14.35
2022-12-25T12:32:37.684Z,13.50
2022-12-25T12:35:14.887Z,16.42
2022-12-25T12:37:42.698Z,19.85
2022-12-25T12:40:33.614Z,18.65
2022-12-25T12:43:03.117Z,15.60
2022-12-25T12:45:32.340Z,15.52
2022-12-25T12:47:59.629Z,15.90
2022-12-25T12:50:36.218Z,13.50
2022-12-25T12:53:18.324Z,12.95
2022-12-25T12:55:45.087Z,12.65
2022-12-25T12:58:29.318Z,12.45
2022-12-25T13:01:08.653Z,11.07
2022-12-25T13:03:52.041Z,11.35
2022-12-25T13:06:23.654Z,12.15
2022-12-25T13:09:02.242Z,11.45
2022-12-25T13:11:31.304Z,11.63
2022-12-25T13:14:02.434Z,11.27
2022-12-25T13:16:33.393Z,12.10
2022-12-25T13:19:05.620Z,11.90
2022-12-25T13:21:33.377Z,11.82
2022-12-25T13:24:02.044Z,11.80
2022-12-25T13:26:29.580Z,11.35
2022-12-25T13:28:56.828Z,11.48
2022-12-25T13:31:26.781Z,11.90
2022-12-25T13:33:58.169Z,9.98
2022-12-25T13:36:27.122Z,10.43
2022-12-25T13:38:56.442Z,11.10
2022-12-25T13:41:26.707Z,11.18
2022-12-25T13:43:58.156Z,11.20
2022-12-25T13:46:27.354Z,11.35
2022-12-25T13:48:58.554Z,10.90
2022-12-25T13:51:25.119Z,11.27
2022-12-25T13:54:02.433Z,10.40
2022-12-25T13:56:29.246Z,10.98
2022-12-25T13:58:56.126Z,10.32
2022-12-25T14:01:22.865Z,10.02
2022-12-25T14:03:50.876Z,10.48
2022-12-25T14:06:19.673Z,9.98
2022-12-25T14:08:47.908Z,9.57
2022-12-25T14:11:16.460Z,9.25
2022-12-25T14:13:45.128Z,10.13
2022-12-25T14:16:15.474Z,9.90
2022-12-25T14:18:52.564Z,10.35
2022-12-25T14:21:27.776Z,10.27
2022-12-25T14:23:54.823Z,9.80
2022-12-25T14:26:23.370Z,10.15
2022-12-25T14:28:52.876Z,10.60
2022-12-25T14:31:20.630Z,10.10
2022-12-25T14:33:49.236Z,10.05
2022-12-25T14:36:17.970Z,9.30
2022-12-25T14:38:44.615Z,10.20
2022-12-25T14:41:26.157Z,9.20
2022-12-25T14:43:54.807Z,10.00
2022-12-25T14:46:23.857Z,9.50
2022-12-25T14:48:58.797Z,10.18
2022-12-25T14:51:27.106Z,9.85
2022-12-25T14:53:56.584Z,10.35
2022-12-25T14:56:25.515Z,9.05
2022-12-25T14:58:54.805Z,8.15
2022-12-25T15:01:27.125Z,8.38
2022-12-25T15:04:04.624Z,7.10
2022-12-25T15:06:32.949Z,6.85
2022-12-25T15:09:01.289Z,7.05
2022-12-25T15:11:28.872Z,6.75
2022-12-25T15:13:55.662Z,7.05
2022-12-25T15:16:24.528Z,7.10
2022-12-25T15:18:52.576Z,7.55
2022-12-25T15:21:25.190Z,7.63
2022-12-25T15:23:53.989Z,7.77
2022-12-25T15:26:20.816Z,8.05
2022-12-25T15:28:47.580Z,7.20
2022-12-25T15:31:20.337Z,7.43
2022-12-25T15:33:46.974Z,7.18
2022-12-25T15:36:13.911Z,8.15
2022-12-25T15:38:40.535Z,7.25
2022-12-25T15:41:13.402Z,7.20
2022-12-25T15:43:41.076Z,4.97
2022-12-25T15:46:09.324Z,7.78
2022-12-25T15:48:35.987Z,7.38
2022-12-25T15:51:02.593Z,6.72
2022-12-25T15:53:29.193Z,7.07
2022-12-25T15:55:55.824Z,7.63
2022-12-25T15:58:23.863Z,7.63
2022-12-25T16:00:50.658Z,7.97
2022-12-25T16:03:17.308Z,7.45
2022-12-25T16:05:43.958Z,7.15
2022-12-25T16:08:10.563Z,7.53
2022-12-25T16:10:39.152Z,7.65
2022-12-25T16:13:07.151Z,6.35
2022-12-25T16:15:35.352Z,7.43
2022-12-25T16:18:02.017Z,7.10
2022-12-25T16:20:28.634Z,7.72
2022-12-25T16:22:55.259Z,8.57
2022-12-25T16:25:21.853Z,7.30
2022-12-25T16:27:48.398Z,8.18
2022-12-25T16:30:17.447Z,7.43
2022-12-25T16:32:49.604Z,7.40
2022-12-25T16:35:16.311Z,7.65
2022-12-25T16:37:43.041Z,7.50
2022-12-25T16:40:10.340Z,8.05
2022-12-25T16:42:37.306Z,8.30
2022-12-25T16:45:04.806Z,8.07
2022-12-25T16:47:31.593Z,8.27
2022-12-25T16:49:59.670Z,7.88
2022-12-25T16:52:26.457Z,8.23
2022-12-25T16:54:53.221Z,8.18
2022-12-25T16:57:19.843Z,8.57
2022-12-25T16:59:46.585Z,8.90
2022-12-25T17:02:15.541Z,8.38
2022-12-25T17:04:42.793Z,8.80
2022-12-25T17:07:11.177Z,9.07
2022-12-25T17:09:43.859Z,9.77
2022-12-25T17:12:11.115Z,11.40
2022-12-25T17:14:37.819Z,10.00
2022-12-25T17:17:04.528Z,10.43
2022-12-25T17:19:31.319Z,9.75
2022-12-25T17:21:58.127Z,9.13
2022-12-25T17:24:26.456Z,8.95
2022-12-25T17:26:53.450Z,9.23
2022-12-25T17:29:22.393Z,9.68
2022-12-25T17:31:49.684Z,9.52
2022-12-25T17:34:16.323Z,9.15
2022-12-25T17:36:43.038Z,9.00
2022-12-25T17:39:11.061Z,9.27
2022-12-25T17:41:39.270Z,9.55
2022-12-25T17:44:05.858Z,9.18
2022-12-25T17:46:32.740Z,9.05
2022-12-25T17:49:01.104Z,9.43
2022-12-25T17:51:31.432Z,9.63
2022-12-25T17:54:00.325Z,9.55
2022-12-25T17:56:26.989Z,9.38
2022-12-25T17:58:56.647Z,9.75
2022-12-25T18:01:24.985Z,9.60
2022-12-25T18:03:52.262Z,9.68
2022-12-25T18:06:21.230Z,9.43
2022-12-25T18:08:48.673Z,10.18
2022-12-25T18:11:17.718Z,9.75
2022-12-25T18:13:45.890Z,10.38
2022-12-25T18:16:14.588Z,9.30
2022-12-25T18:18:45.192Z,11.13
2022-12-25T18:21:16.283Z,11.27
2022-12-25T18:23:42.949Z,9.52
2022-12-25T18:26:11.001Z,10.55
2022-12-25T18:28:38.013Z,9.55
2022-12-25T18:31:07.633Z,9.38
2022-12-25T18:33:35.866Z,9.27
2022-12-25T18:36:02.814Z,11.10
2022-12-25T18:38:29.475Z,10.25
2022-12-25T18:40:56.138Z,10.30
2022-12-25T18:43:53.159Z,10.27
2022-12-25T18:46:09.751Z,10.55
2022-12-25T18:48:39.154Z,10.38
2022-12-25T18:51:08.561Z,10.27
2022-12-25T18:53:36.103Z,10.60
2022-12-25T18:56:05.940Z,9.70
2022-12-25T18:58:32.796Z,9.93
2022-12-25T19:00:59.510Z,9.82
2022-12-25T19:03:26.278Z,10.20
2022-12-25T19:05:54.350Z,10.98
2022-12-25T19:08:20.930Z,8.63
2022-12-25T19:10:47.559Z,9.63
2022-12-25T19:13:14.233Z,10.52
2022-12-25T19:15:42.536Z,10.82
2022-12-25T19:18:09.286Z,9.82
2022-12-25T19:20:38.739Z,8.43
2022-12-25T19:23:06.864Z,9.13
2022-12-25T19:25:33.717Z,8.82
2022-12-25T19:28:00.366Z,8.95
2022-12-25T19:30:26.974Z,9.38
2022-12-25T19:32:53.631Z,9.10
2022-12-25T19:35:20.191Z,8.80
2022-12-25T19:37:46.980Z,9.88
2022-12-25T19:40:15.002Z,9.95
2022-12-25T19:42:41.561Z,9.32
2022-12-25T19:45:09.061Z,9.55
2022-12-25T19:47:35.719Z,9.57
2022-12-25T19:50:03.432Z,9.98
2022-12-25T19:52:30.398Z,8.98
2022-12-25T19:54:57.170Z,10.77
2022-12-25T19:57:25.296Z,9.63
2022-12-25T19:59:52.253Z,10.80
2022-12-25T20:02:19.123Z,11.15
2022-12-25T20:04:45.891Z,10.90
2022-12-25T20:07:12.669Z,11.27
2022-12-25T20:09:39.481Z,10.60
2022-12-25T20:12:06.617Z,10.70
2022-12-25T20:14:34.800Z,10.98
2022-12-25T20:17:01.762Z,10.77
2022-12-25T20:19:28.535Z,10.18
2022-12-25T20:21:55.519Z,9.88
2022-12-25T20:24:22.454Z,9.98
2022-12-25T20:26:51.481Z,9.70
2022-12-25T20:29:22.308Z,9.35
2022-12-25T20:31:51.624Z,9.15
2022-12-25T20:34:18.482Z,9.95
2022-12-25T20:36:45.050Z,10.05
2022-12-25T20:39:12.634Z,10.15
2022-12-25T20:41:39.461Z,10.63
2022-12-25T20:44:08.123Z,10.18
2022-12-25T20:46:34.840Z,10.10
2022-12-25T20:49:03.561Z,9.50
2022-12-25T20:51:30.360Z,9.55
2022-12-25T20:53:57.378Z,9.35
2022-12-25T20:56:26.442Z,10.18
2022-12-25T20:58:54.356Z,9.60
2022-12-25T21:01:21.179Z,10.23
2022-12-25T21:03:47.887Z,10.23
2022-12-25T21:06:16.129Z,9.60
2022-12-25T21:08:42.737Z,9.50
2022-12-25T21:11:10.791Z,9.13
2022-12-25T21:13:39.469Z,8.93
2022-12-25T21:16:07.570Z,9.15
2022-12-25T21:18:34.674Z,9.07
2022-12-25T21:21:02.211Z,8.60
2022-12-25T21:23:30.433Z,8.07
2022-12-25T21:25:57.368Z,8.95
2022-12-25T21:28:24.635Z,8.55
2022-12-25T21:30:51.347Z,9.85
2022-12-25T21:33:18.144Z,8.23
2022-12-25T21:35:44.755Z,8.23
2022-12-25T21:38:11.541Z,7.93
2022-12-25T21:40:39.712Z,7.93
2022-12-25T21:43:06.531Z,8.43
2022-12-25T21:45:33.783Z,7.72
2022-12-25T21:48:02.972Z,7.72
2022-12-25T21:50:32.503Z,7.68
2022-12-25T21:53:02.713Z,7.97
2022-12-25T21:55:29.371Z,7.63
2022-12-25T21:57:57.389Z,7.80
2022-12-25T22:00:23.967Z,8.25
2022-12-25T22:02:50.643Z,7.75
2022-12-25T22:05:17.421Z,7.03
2022-12-25T22:07:44.085Z,7.03
2022-12-25T22:10:10.727Z,7.10
2022-12-25T22:12:37.334Z,6.80
2022-12-25T22:15:08.045Z,7.32
2022-12-25T22:17:36.875Z,7.63
2022-12-25T22:20:05.433Z,6.70
2022-12-25T22:22:32.325Z,7.13
2022-12-25T22:25:00.699Z,6.88
2022-12-25T22:27:31.216Z,6.68
2022-12-25T22:29:58.053Z,6.65
2022-12-25T22:32:26.529Z,6.93
2022-12-25T22:34:53.196Z,7.10
2022-12-25T22:37:20.043Z,6.78
2022-12-25T22:39:46.977Z,7.25
2022-12-25T22:42:13.817Z,6.75
2022-12-25T22:44:40.581Z,6.80
2022-12-25T22:47:07.431Z,7.05
2022-12-25T22:49:35.442Z,7.38
2022-12-25T22:52:02.287Z,7.18
2022-12-25T22:54:30.556Z,7.18
2022-12-25T22:56:57.930Z,6.53
2022-12-25T22:59:24.514Z,6.65
2022-12-25T23:01:51.218Z,7.03
2022-12-25T23:04:18.210Z,7.35
2022-12-25T23:06:46.753Z,6.93
2022-12-25T23:09:20.579Z,6.25
2022-12-25T23:11:50.917Z,6.30
2022-12-25T23:14:17.536Z,6.70
2022-12-25T23:16:44.525Z,6.70
2022-12-25T23:19:12.401Z,6.50
2022-12-25T23:21:40.291Z,6.85
2022-12-25T23:24:09.650Z,6.05
2022-12-25T23:26:36.437Z,5.93
2022-12-25T23:29:03.516Z,5.72
2022-12-25T23:31:32.677Z,6.40
2022-12-25T23:33:59.734Z,5.93
2022-12-25T23:36:26.443Z,6.28
2022-12-25T23:38:53.091Z,6.55
2022-12-25T23:41:21.454Z,6.03
2022-12-25T23:43:48.149Z,5.97
2022-12-25T23:46:15.134Z,6.82
2022-12-25T23:48:41.819Z,6.22
2022-12-25T23:51:08.687Z,5.82
2022-12-25T23:53:35.752Z,6.13
2022-12-25T23:56:02.969Z,6.47
2022-12-25T23:58:31.050Z,5.43
